Time;durP1;ratioP1;P1;durP2;ratioP2;P2;SDS_P1;SDS_P2;PMS_P1;PMS_P2;Temp;Humidity;BMP_temperature;BMP_pressure;BME280_temperature;BME280_humidity;BME280_pressure;Samples;Min_cycle;Max_cycle;Signal;HPM_P1;HPM_P2
2019/07/26 00:01:00;;;;;;;8.399999;7.599999;;;;;;;20.74;61.41211;94952.26;;;;
2019/07/26 00:02:07;;;;;;;8.399999;7.599999;;;;;;;20.74;61.41211;94952.26;;;;
2019/07/26 00:03:09;;;;;;;8.399999;7.599999;;;;;;;20.74;61.41211;94952.26;;;;
2019/07/26 00:04:10;;;;;;;8.399999;7.599999;;;;;;;20.74;61.41211;94952.26;;;;
2019/07/26 00:05:12;;;;;;;8.399999;7.599999;;;;;;;20.74;61.41211;94952.26;;;;
2019/07/26 00:06:14;;;;;;;8.399999;7.599999;;;;;;;20.74;61.41211;94952.26;;;;
2019/07/26 00:07:15;;;;;;;8.399999;7.599999;;;;;;;20.74;61.41211;94952.26;;;;
2019/07/26 00:08:16;;;;;;;8.549999;7.75;;;;;;;20.55;62.05566;94950.36;;;;
2019/07/26 00:09:17;;;;;;;8.549999;7.75;;;;;;;20.55;62.05566;94950.36;;;;
2019/07/26 00:10:19;;;;;;;8.549999;7.75;;;;;;;20.55;62.05566;94950.36;;;;
2019/07/26 00:11:21;;;;;;;8.549999;7.75;;;;;;;20.55;62.05566;94950.36;;;;
2019/07/26 00:12:22;;;;;;;8.549999;7.75;;;;;;;20.55;62.05566;94950.36;;;;
2019/07/26 00:13:23;;;;;;;8.549999;7.75;;;;;;;20.55;62.05566;94950.36;;;;
2019/07/26 00:14:24;;;;;;;8.549999;7.75;;;;;;;20.55;62.05566;94950.36;;;;
2019/07/26 00:15:25;;;;;;;8.549999;7.75;;;;;;;20.55;62.05566;94950.36;;;;
2019/07/26 00:16:26;;;;;;;8.549999;7.75;;;;;;;20.55;62.05566;94950.36;;;;
2019/07/26 00:17:27;;;;;;;8.549999;7.75;;;;;;;20.55;62.05566;94950.36;;;;
2019/07/26 00:18:29;;;;;;;8.950001;8.15;;;;;;;20.39;62.86816;94940.67;;;;
2019/07/26 00:19:30;;;;;;;8.950001;8.15;;;;;;;20.39;62.86816;94940.67;;;;
2019/07/26 00:20:31;;;;;;;8.950001;8.15;;;;;;;20.39;62.86816;94940.67;;;;
2019/07/26 00:21:32;;;;;;;8.950001;8.15;;;;;;;20.39;62.86816;94940.67;;;;
2019/07/26 00:22:33;;;;;;;8.950001;8.15;;;;;;;20.39;62.86816;94940.67;;;;
2019/07/26 00:23:34;;;;;;;8.950001;8.15;;;;;;;20.39;62.86816;94940.67;;;;
2019/07/26 00:24:36;;;;;;;8.950001;8.15;;;;;;;20.39;62.86816;94940.67;;;;
2019/07/26 00:25:37;;;;;;;8.950001;8.15;;;;;;;20.39;62.86816;94940.67;;;;
2019/07/26 00:26:38;;;;;;;8.950001;8.15;;;;;;;20.39;62.86816;94940.67;;;;
2019/07/26 00:27:39;;;;;;;8.950001;8.15;;;;;;;20.39;62.86816;94940.67;;;;
2019/07/26 00:28:40;;;;;;;8.950001;8.15;;;;;;;20.39;62.86816;94940.67;;;;
2019/07/26 00:29:41;;;;;;;7.900001;7.2;;;;;;;20.18;63.85938;94940.84;;;;
2019/07/26 00:30:42;;;;;;;7.900001;7.2;;;;;;;20.18;63.85938;94940.84;;;;
2019/07/26 00:31:48;;;;;;;7.900001;7.2;;;;;;;20.18;63.85938;94940.84;;;;
2019/07/26 00:32:50;;;;;;;7.900001;7.2;;;;;;;20.18;63.85938;94940.84;;;;
2019/07/26 00:33:51;;;;;;;7.900001;7.2;;;;;;;20.18;63.85938;94940.84;;;;
2019/07/26 00:34:52;;;;;;;7.900001;7.2;;;;;;;20.18;63.85938;94940.84;;;;
2019/07/26 00:35:53;;;;;;;7.900001;7.2;;;;;;;20.18;63.85938;94940.84;;;;
2019/07/26 00:36:54;;;;;;;7.900001;7.2;;;;;;;20.18;63.85938;94940.84;;;;
2019/07/26 00:37:55;;;;;;;7.900001;7.2;;;;;;;20.18;63.85938;94940.84;;;;
2019/07/26 00:38:57;;;;;;;7.900001;7.2;;;;;;;20.18;63.85938;94940.84;;;;
2019/07/26 00:39:58;;;;;;;8.75;7.95;;;;;;;20.04;64.83691;94932.72;;;;
2019/07/26 00:40:59;;;;;;;8.75;7.95;;;;;;;20.04;64.83691;94932.72;;;;
2019/07/26 00:42:00;;;;;;;8.75;7.95;;;;;;;20.04;64.83691;94932.72;;;;
2019/07/26 00:43:01;;;;;;;8.75;7.95;;;;;;;20.04;64.83691;94932.72;;;;
2019/07/26 00:44:02;;;;;;;8.75;7.95;;;;;;;20.04;64.83691;94932.72;;;;
2019/07/26 00:45:04;;;;;;;8.75;7.95;;;;;;;20.04;64.83691;94932.72;;;;
2019/07/26 00:46:05;;;;;;;8.75;7.95;;;;;;;20.04;64.83691;94932.72;;;;
2019/07/26 00:47:06;;;;;;;8.75;7.95;;;;;;;20.04;64.83691;94932.72;;;;
2019/07/26 00:48:07;;;;;;;8.75;7.95;;;;;;;20.04;64.83691;94932.72;;;;
2019/07/26 00:49:09;;;;;;;8.75;7.95;;;;;;;20.04;64.83691;94932.72;;;;
2019/07/26 00:50:10;;;;;;;9.35;8.45;;;;;;;19.86;65.7207;94933.2;;;;
2019/07/26 00:51:11;;;;;;;9.35;8.45;;;;;;;19.86;65.7207;94933.2;;;;
2019/07/26 00:52:12;;;;;;;9.35;8.45;;;;;;;19.86;65.7207;94933.2;;;;
2019/07/26 00:53:13;;;;;;;9.35;8.45;;;;;;;19.86;65.7207;94933.2;;;;
2019/07/26 00:54:14;;;;;;;9.35;8.45;;;;;;;19.86;65.7207;94933.2;;;;
2019/07/26 00:55:16;;;;;;;9.35;8.45;;;;;;;19.86;65.7207;94933.2;;;;
2019/07/26 00:56:17;;;;;;;9.35;8.45;;;;;;;19.86;65.7207;94933.2;;;;
2019/07/26 00:57:18;;;;;;;9.35;8.45;;;;;;;19.86;65.7207;94933.2;;;;
2019/07/26 00:58:19;;;;;;;9.35;8.45;;;;;;;19.86;65.7207;94933.2;;;;
2019/07/26 00:59:20;;;;;;;9.35;8.45;;;;;;;19.86;65.7207;94933.2;;;;
2019/07/26 01:00:21;;;;;;;9.35;8.45;;;;;;;19.86;65.7207;94933.2;;;;
2019/07/26 01:01:23;;;;;;;8.8;8.1;;;;;;;19.75;66.88672;94939.81;;;;
2019/07/26 01:02:24;;;;;;;8.8;8.1;;;;;;;19.75;66.88672;94939.81;;;;
2019/07/26 01:03:25;;;;;;;8.8;8.1;;;;;;;19.75;66.88672;94939.81;;;;
2019/07/26 01:04:26;;;;;;;8.8;8.1;;;;;;;19.75;66.88672;94939.81;;;;
2019/07/26 01:05:27;;;;;;;8.8;8.1;;;;;;;19.75;66.88672;94939.81;;;;
2019/07/26 01:06:29;;;;;;;8.8;8.1;;;;;;;19.75;66.88672;94939.81;;;;
2019/07/26 01:07:30;;;;;;;8.8;8.1;;;;;;;19.75;66.88672;94939.81;;;;
2019/07/26 01:08:32;;;;;;;8.8;8.1;;;;;;;19.75;66.88672;94939.81;;;;
2019/07/26 01:09:33;;;;;;;8.8;8.1;;;;;;;19.75;66.88672;94939.81;;;;
2019/07/26 01:10:34;;;;;;;8.8;8.1;;;;;;;19.75;66.88672;94939.81;;;;
2019/07/26 01:11:35;;;;;;;8.4;7.699999;;;;;;;19.61;67.88477;94933.9;;;;
2019/07/26 01:12:37;;;;;;;8.4;7.699999;;;;;;;19.61;67.88477;94933.9;;;;
2019/07/26 01:13:38;;;;;;;8.4;7.699999;;;;;;;19.61;67.88477;94933.9;;;;
2019/07/26 01:14:39;;;;;;;8.4;7.699999;;;;;;;19.61;67.88477;94933.9;;;;
2019/07/26 01:15:40;;;;;;;8.4;7.699999;;;;;;;19.61;67.88477;94933.9;;;;
2019/07/26 01:16:41;;;;;;;8.4;7.699999;;;;;;;19.61;67.88477;94933.9;;;;
2019/07/26 01:17:43;;;;;;;8.4;7.699999;;;;;;;19.61;67.88477;94933.9;;;;
2019/07/26 01:18:44;;;;;;;8.4;7.699999;;;;;;;19.61;67.88477;94933.9;;;;
2019/07/26 01:19:45;;;;;;;8.4;7.699999;;;;;;;19.61;67.88477;94933.9;;;;
2019/07/26 01:20:46;;;;;;;8.4;7.699999;;;;;;;19.61;67.88477;94933.9;;;;
2019/07/26 01:21:49;;;;;;;8.4;7.699999;;;;;;;19.61;67.88477;94933.9;;;;
2019/07/26 01:22:50;;;;;;;8.449998;7.75;;;;;;;19.54;69.20801;94941.28;;;;
2019/07/26 01:23:51;;;;;;;8.449998;7.75;;;;;;;19.54;69.20801;94941.28;;;;
2019/07/26 01:24:52;;;;;;;8.449998;7.75;;;;;;;19.54;69.20801;94941.28;;;;
2019/07/26 01:25:53;;;;;;;8.449998;7.75;;;;;;;19.54;69.20801;94941.28;;;;
2019/07/26 01:26:55;;;;;;;8.449998;7.75;;;;;;;19.54;69.20801;94941.28;;;;
2019/07/26 01:27:56;;;;;;;8.449998;7.75;;;;;;;19.54;69.20801;94941.28;;;;
2019/07/26 01:28:57;;;;;;;8.449998;7.75;;;;;;;19.54;69.20801;94941.28;;;;
2019/07/26 01:29:58;;;;;;;8.449998;7.75;;;;;;;19.54;69.20801;94941.28;;;;
2019/07/26 01:30:59;;;;;;;8.449998;7.75;;;;;;;19.54;69.20801;94941.28;;;;
2019/07/26 01:32:07;;;;;;;8.449998;7.75;;;;;;;19.54;69.20801;94941.28;;;;
2019/07/26 01:33:08;;;;;;;8.449998;7.75;;;;;;;19.54;69.20801;94941.28;;;;
2019/07/26 01:34:10;;;;;;;8.449998;7.75;;;;;;;19.54;69.20801;94941.28;;;;
2019/07/26 01:35:11;;;;;;;8.449998;7.75;;;;;;;19.54;69.20801;94941.28;;;;
2019/07/26 01:36:12;;;;;;;8.449998;7.75;;;;;;;19.54;69.20801;94941.28;;;;
2019/07/26 01:37:14;;;;;;;8.449998;7.75;;;;;;;19.54;69.20801;94941.28;;;;
2019/07/26 01:38:15;;;;;;;8.449998;7.75;;;;;;;19.54;69.20801;94941.28;;;;
2019/07/26 01:39:17;;;;;;;8.449998;7.75;;;;;;;19.54;69.20801;94941.28;;;;
2019/07/26 01:40:18;;;;;;;8.449998;7.75;;;;;;;19.54;69.20801;94941.28;;;;
2019/07/26 01:41:19;;;;;;;8.449998;7.75;;;;;;;19.54;69.20801;94941.28;;;;
2019/07/26 01:42:35;;;;;;;8.449998;7.75;;;;;;;19.54;69.20801;94941.28;;;;
2019/07/26 01:43:36;;;;;;;9.200001;8.200001;;;;;;;19.36;71.02832;94940.77;;;;
2019/07/26 01:44:38;;;;;;;9.200001;8.200001;;;;;;;19.36;71.02832;94940.77;;;;
2019/07/26 01:45:39;;;;;;;9.200001;8.200001;;;;;;;19.36;71.02832;94940.77;;;;
2019/07/26 01:46:46;;;;;;;9.200001;8.200001;;;;;;;19.36;71.02832;94940.77;;;;
2019/07/26 01:47:47;;;;;;;9.200001;8.200001;;;;;;;19.36;71.02832;94940.77;;;;
2019/07/26 01:48:48;;;;;;;9.200001;8.200001;;;;;;;19.36;71.02832;94940.77;;;;
2019/07/26 01:49:49;;;;;;;9.200001;8.200001;;;;;;;19.36;71.02832;94940.77;;;;
2019/07/26 01:50:51;;;;;;;9.200001;8.200001;;;;;;;19.36;71.02832;94940.77;;;;
2019/07/26 01:51:52;;;;;;;9.200001;8.200001;;;;;;;19.36;71.02832;94940.77;;;;
2019/07/26 01:52:53;;;;;;;9.200001;8.200001;;;;;;;19.36;71.02832;94940.77;;;;
2019/07/26 01:53:54;;;;;;;9.200001;8.200001;;;;;;;19.36;71.02832;94940.77;;;;
2019/07/26 01:54:55;;;;;;;9.25;8.4;;;;;;;19.13;72.12793;94939.33;;;;
2019/07/26 01:55:56;;;;;;;9.25;8.4;;;;;;;19.13;72.12793;94939.33;;;;
2019/07/26 01:56:58;;;;;;;9.25;8.4;;;;;;;19.13;72.12793;94939.33;;;;
2019/07/26 01:57:59;;;;;;;9.25;8.4;;;;;;;19.13;72.12793;94939.33;;;;
2019/07/26 01:59:00;;;;;;;9.25;8.4;;;;;;;19.13;72.12793;94939.33;;;;
2019/07/26 02:00:01;;;;;;;9.25;8.4;;;;;;;19.13;72.12793;94939.33;;;;
2019/07/26 02:01:04;;;;;;;9.25;8.4;;;;;;;19.13;72.12793;94939.33;;;;
2019/07/26 02:02:07;;;;;;;9.25;8.4;;;;;;;19.13;72.12793;94939.33;;;;
2019/07/26 02:03:08;;;;;;;9.25;8.4;;;;;;;19.13;72.12793;94939.33;;;;
2019/07/26 02:04:09;;;;;;;9.25;8.4;;;;;;;19.13;72.12793;94939.33;;;;
2019/07/26 02:05:10;;;;;;;9.5;8.6;;;;;;;19.02;73.33203;94934.3;;;;
2019/07/26 02:06:12;;;;;;;9.5;8.6;;;;;;;19.02;73.33203;94934.3;;;;
2019/07/26 02:07:13;;;;;;;9.5;8.6;;;;;;;19.02;73.33203;94934.3;;;;
2019/07/26 02:08:14;;;;;;;9.5;8.6;;;;;;;19.02;73.33203;94934.3;;;;
2019/07/26 02:09:15;;;;;;;9.5;8.6;;;;;;;19.02;73.33203;94934.3;;;;
2019/07/26 02:10:17;;;;;;;9.5;8.6;;;;;;;19.02;73.33203;94934.3;;;;
2019/07/26 02:11:25;;;;;;;9.5;8.6;;;;;;;19.02;73.33203;94934.3;;;;
2019/07/26 02:12:27;;;;;;;9.5;8.6;;;;;;;19.02;73.33203;94934.3;;;;
2019/07/26 02:13:28;;;;;;;9.5;8.6;;;;;;;19.02;73.33203;94934.3;;;;
2019/07/26 02:14:29;;;;;;;9.5;8.6;;;;;;;19.02;73.33203;94934.3;;;;
2019/07/26 02:15:31;;;;;;;9.700001;8.7;;;;;;;18.9;74.38086;94938.45;;;;
2019/07/26 02:16:32;;;;;;;9.700001;8.7;;;;;;;18.9;74.38086;94938.45;;;;
2019/07/26 02:17:34;;;;;;;9.700001;8.7;;;;;;;18.9;74.38086;94938.45;;;;
2019/07/26 02:18:35;;;;;;;9.700001;8.7;;;;;;;18.9;74.38086;94938.45;;;;
2019/07/26 02:19:36;;;;;;;9.700001;8.7;;;;;;;18.9;74.38086;94938.45;;;;
2019/07/26 02:20:37;;;;;;;9.700001;8.7;;;;;;;18.9;74.38086;94938.45;;;;
2019/07/26 02:21:38;;;;;;;9.700001;8.7;;;;;;;18.9;74.38086;94938.45;;;;
2019/07/26 02:22:40;;;;;;;9.700001;8.7;;;;;;;18.9;74.38086;94938.45;;;;
2019/07/26 02:23:41;;;;;;;9.700001;8.7;;;;;;;18.9;74.38086;94938.45;;;;
2019/07/26 02:24:42;;;;;;;9.700001;8.7;;;;;;;18.9;74.38086;94938.45;;;;
2019/07/26 02:25:43;;;;;;;8.9;8.1;;;;;;;18.84;75.03613;94927.31;;;;
2019/07/26 02:26:45;;;;;;;8.9;8.1;;;;;;;18.84;75.03613;94927.31;;;;
2019/07/26 02:27:46;;;;;;;8.9;8.1;;;;;;;18.84;75.03613;94927.31;;;;
2019/07/26 02:28:47;;;;;;;8.9;8.1;;;;;;;18.84;75.03613;94927.31;;;;
2019/07/26 02:29:48;;;;;;;8.9;8.1;;;;;;;18.84;75.03613;94927.31;;;;
2019/07/26 02:30:49;;;;;;;8.9;8.1;;;;;;;18.84;75.03613;94927.31;;;;
2019/07/26 02:31:51;;;;;;;8.9;8.1;;;;;;;18.84;75.03613;94927.31;;;;
2019/07/26 02:32:52;;;;;;;8.9;8.1;;;;;;;18.84;75.03613;94927.31;;;;
2019/07/26 02:33:53;;;;;;;8.9;8.1;;;;;;;18.84;75.03613;94927.31;;;;
2019/07/26 02:34:54;;;;;;;8.9;8.1;;;;;;;18.84;75.03613;94927.31;;;;
2019/07/26 02:35:55;;;;;;;8.9;8.1;;;;;;;18.84;75.03613;94927.31;;;;
2019/07/26 02:36:56;;;;;;;10.5;9.350001;;;;;;;18.71;75.74609;94916.97;;;;
2019/07/26 02:37:58;;;;;;;10.5;9.350001;;;;;;;18.71;75.74609;94916.97;;;;
2019/07/26 02:39:01;;;;;;;10.5;9.350001;;;;;;;18.71;75.74609;94916.97;;;;
2019/07/26 02:40:04;;;;;;;10.5;9.350001;;;;;;;18.71;75.74609;94916.97;;;;
2019/07/26 02:41:06;;;;;;;10.5;9.350001;;;;;;;18.71;75.74609;94916.97;;;;
2019/07/26 02:42:07;;;;;;;10.5;9.350001;;;;;;;18.71;75.74609;94916.97;;;;
2019/07/26 02:43:09;;;;;;;10.5;9.350001;;;;;;;18.71;75.74609;94916.97;;;;
2019/07/26 02:44:10;;;;;;;10.5;9.350001;;;;;;;18.71;75.74609;94916.97;;;;
2019/07/26 02:45:11;;;;;;;10.5;9.350001;;;;;;;18.71;75.74609;94916.97;;;;
2019/07/26 02:46:13;;;;;;;10.5;9.350001;;;;;;;18.71;75.74609;94916.97;;;;
2019/07/26 02:47:14;;;;;;;10.65;9.65;;;;;;;18.65;76.08301;94918.71;;;;
2019/07/26 02:48:15;;;;;;;10.65;9.65;;;;;;;18.65;76.08301;94918.71;;;;
2019/07/26 02:49:16;;;;;;;10.65;9.65;;;;;;;18.65;76.08301;94918.71;;;;
2019/07/26 02:50:17;;;;;;;10.65;9.65;;;;;;;18.65;76.08301;94918.71;;;;
2019/07/26 02:51:21;;;;;;;10.65;9.65;;;;;;;18.65;76.08301;94918.71;;;;
2019/07/26 02:52:22;;;;;;;10.65;9.65;;;;;;;18.65;76.08301;94918.71;;;;
2019/07/26 02:53:23;;;;;;;10.65;9.65;;;;;;;18.65;76.08301;94918.71;;;;
2019/07/26 02:54:24;;;;;;;10.65;9.65;;;;;;;18.65;76.08301;94918.71;;;;
2019/07/26 02:55:25;;;;;;;10.65;9.65;;;;;;;18.65;76.08301;94918.71;;;;
2019/07/26 02:56:26;;;;;;;10.65;9.65;;;;;;;18.65;76.08301;94918.71;;;;
2019/07/26 02:57:28;;;;;;;10.65;9.65;;;;;;;18.65;76.08301;94918.71;;;;
2019/07/26 02:58:29;;;;;;;11.55;10.5;;;;;;;18.53;76.57617;94906.83;;;;
2019/07/26 02:59:30;;;;;;;11.55;10.5;;;;;;;18.53;76.57617;94906.83;;;;
2019/07/26 03:00:31;;;;;;;11.55;10.5;;;;;;;18.53;76.57617;94906.83;;;;
2019/07/26 03:01:43;;;;;;;11.55;10.5;;;;;;;18.53;76.57617;94906.83;;;;
2019/07/26 03:02:44;;;;;;;11.55;10.5;;;;;;;18.53;76.57617;94906.83;;;;
2019/07/26 03:03:45;;;;;;;11.55;10.5;;;;;;;18.53;76.57617;94906.83;;;;
2019/07/26 03:04:47;;;;;;;11.55;10.5;;;;;;;18.53;76.57617;94906.83;;;;
2019/07/26 03:05:48;;;;;;;11.55;10.5;;;;;;;18.53;76.57617;94906.83;;;;
2019/07/26 03:06:49;;;;;;;11.55;10.5;;;;;;;18.53;76.57617;94906.83;;;;
2019/07/26 03:07:50;;;;;;;11.55;10.5;;;;;;;18.53;76.57617;94906.83;;;;
2019/07/26 03:08:51;;;;;;;11.9;10.75;;;;;;;18.51;77.23633;94906.3;;;;
2019/07/26 03:09:53;;;;;;;11.9;10.75;;;;;;;18.51;77.23633;94906.3;;;;
2019/07/26 03:10:54;;;;;;;11.9;10.75;;;;;;;18.51;77.23633;94906.3;;;;
2019/07/26 03:11:55;;;;;;;11.9;10.75;;;;;;;18.51;77.23633;94906.3;;;;
2019/07/26 03:12:56;;;;;;;11.9;10.75;;;;;;;18.51;77.23633;94906.3;;;;
2019/07/26 03:13:57;;;;;;;11.9;10.75;;;;;;;18.51;77.23633;94906.3;;;;
2019/07/26 03:14:58;;;;;;;11.9;10.75;;;;;;;18.51;77.23633;94906.3;;;;
2019/07/26 03:15:59;;;;;;;11.9;10.75;;;;;;;18.51;77.23633;94906.3;;;;
2019/07/26 03:17:00;;;;;;;11.9;10.75;;;;;;;18.51;77.23633;94906.3;;;;
2019/07/26 03:18:01;;;;;;;11.9;10.75;;;;;;;18.51;77.23633;94906.3;;;;
2019/07/26 03:19:03;;;;;;;12.2;11.1;;;;;;;18.4;77.95703;94911.61;;;;
2019/07/26 03:20:04;;;;;;;12.2;11.1;;;;;;;18.4;77.95703;94911.61;;;;
2019/07/26 03:21:05;;;;;;;12.2;11.1;;;;;;;18.4;77.95703;94911.61;;;;
2019/07/26 03:22:07;;;;;;;12.2;11.1;;;;;;;18.4;77.95703;94911.61;;;;
2019/07/26 03:23:08;;;;;;;12.2;11.1;;;;;;;18.4;77.95703;94911.61;;;;
2019/07/26 03:24:09;;;;;;;12.2;11.1;;;;;;;18.4;77.95703;94911.61;;;;
2019/07/26 03:25:10;;;;;;;12.2;11.1;;;;;;;18.4;77.95703;94911.61;;;;
2019/07/26 03:26:11;;;;;;;12.2;11.1;;;;;;;18.4;77.95703;94911.61;;;;
2019/07/26 03:27:12;;;;;;;12.2;11.1;;;;;;;18.4;77.95703;94911.61;;;;
2019/07/26 03:28:14;;;;;;;12.2;11.1;;;;;;;18.4;77.95703;94911.61;;;;
2019/07/26 03:29:15;;;;;;;12.2;11.1;;;;;;;18.4;77.95703;94911.61;;;;
2019/07/26 03:30:16;;;;;;;13.3;12.2;;;;;;;18.33;78.53125;94913.89;;;;
2019/07/26 03:31:18;;;;;;;13.3;12.2;;;;;;;18.33;78.53125;94913.89;;;;
2019/07/26 03:32:19;;;;;;;13.3;12.2;;;;;;;18.33;78.53125;94913.89;;;;
2019/07/26 03:33:20;;;;;;;13.3;12.2;;;;;;;18.33;78.53125;94913.89;;;;
2019/07/26 03:34:22;;;;;;;13.3;12.2;;;;;;;18.33;78.53125;94913.89;;;;
2019/07/26 03:35:23;;;;;;;13.3;12.2;;;;;;;18.33;78.53125;94913.89;;;;
2019/07/26 03:36:24;;;;;;;13.3;12.2;;;;;;;18.33;78.53125;94913.89;;;;
2019/07/26 03:37:25;;;;;;;13.3;12.2;;;;;;;18.33;78.53125;94913.89;;;;
2019/07/26 03:38:26;;;;;;;13.3;12.2;;;;;;;18.33;78.53125;94913.89;;;;
2019/07/26 03:39:28;;;;;;;13.3;12.2;;;;;;;18.33;78.53125;94913.89;;;;
2019/07/26 03:40:29;;;;;;;12.8;11.7;;;;;;;18.19;79.20215;94922.14;;;;
2019/07/26 03:41:30;;;;;;;12.8;11.7;;;;;;;18.19;79.20215;94922.14;;;;
2019/07/26 03:42:31;;;;;;;12.8;11.7;;;;;;;18.19;79.20215;94922.14;;;;
2019/07/26 03:43:32;;;;;;;12.8;11.7;;;;;;;18.19;79.20215;94922.14;;;;
2019/07/26 03:44:34;;;;;;;12.8;11.7;;;;;;;18.19;79.20215;94922.14;;;;
2019/07/26 03:45:35;;;;;;;12.8;11.7;;;;;;;18.19;79.20215;94922.14;;;;
2019/07/26 03:46:36;;;;;;;12.8;11.7;;;;;;;18.19;79.20215;94922.14;;;;
2019/07/26 03:47:37;;;;;;;12.8;11.7;;;;;;;18.19;79.20215;94922.14;;;;
2019/07/26 03:48:38;;;;;;;12.8;11.7;;;;;;;18.19;79.20215;94922.14;;;;
2019/07/26 03:49:39;;;;;;;12.8;11.7;;;;;;;18.19;79.20215;94922.14;;;;
2019/07/26 03:50:40;;;;;;;12.25;11.2;;;;;;;18.11;79.98047;94921.44;;;;
2019/07/26 03:51:41;;;;;;;12.25;11.2;;;;;;;18.11;79.98047;94921.44;;;;
2019/07/26 03:52:42;;;;;;;12.25;11.2;;;;;;;18.11;79.98047;94921.44;;;;
2019/07/26 03:53:44;;;;;;;12.25;11.2;;;;;;;18.11;79.98047;94921.44;;;;
2019/07/26 03:54:45;;;;;;;12.25;11.2;;;;;;;18.11;79.98047;94921.44;;;;
2019/07/26 03:55:46;;;;;;;12.25;11.2;;;;;;;18.11;79.98047;94921.44;;;;
2019/07/26 03:56:47;;;;;;;12.25;11.2;;;;;;;18.11;79.98047;94921.44;;;;
2019/07/26 03:57:48;;;;;;;12.25;11.2;;;;;;;18.11;79.98047;94921.44;;;;
2019/07/26 03:58:49;;;;;;;12.25;11.2;;;;;;;18.11;79.98047;94921.44;;;;
2019/07/26 03:59:50;;;;;;;12.25;11.2;;;;;;;18.11;79.98047;94921.44;;;;
2019/07/26 04:00:51;;;;;;;12.25;11.2;;;;;;;18.11;79.98047;94921.44;;;;
2019/07/26 04:01:52;;;;;;;12.95;11.8;;;;;;;18.02;80.82422;94920.86;;;;
2019/07/26 04:02:53;;;;;;;12.95;11.8;;;;;;;18.02;80.82422;94920.86;;;;
2019/07/26 04:03:54;;;;;;;12.95;11.8;;;;;;;18.02;80.82422;94920.86;;;;
2019/07/26 04:04:56;;;;;;;12.95;11.8;;;;;;;18.02;80.82422;94920.86;;;;
2019/07/26 04:05:57;;;;;;;12.95;11.8;;;;;;;18.02;80.82422;94920.86;;;;
2019/07/26 04:06:58;;;;;;;12.95;11.8;;;;;;;18.02;80.82422;94920.86;;;;
2019/07/26 04:07:59;;;;;;;12.95;11.8;;;;;;;18.02;80.82422;94920.86;;;;
2019/07/26 04:09:00;;;;;;;12.95;11.8;;;;;;;18.02;80.82422;94920.86;;;;
2019/07/26 04:10:01;;;;;;;12.95;11.8;;;;;;;18.02;80.82422;94920.86;;;;
2019/07/26 04:11:03;;;;;;;12.95;11.8;;;;;;;18.02;80.82422;94920.86;;;;
2019/07/26 04:12:04;;;;;;;13.1;11.9;;;;;;;18.05;81.64355;94911.66;;;;
2019/07/26 04:13:05;;;;;;;13.1;11.9;;;;;;;18.05;81.64355;94911.66;;;;
2019/07/26 04:14:07;;;;;;;13.1;11.9;;;;;;;18.05;81.64355;94911.66;;;;
2019/07/26 04:15:08;;;;;;;13.1;11.9;;;;;;;18.05;81.64355;94911.66;;;;
2019/07/26 04:16:09;;;;;;;13.1;11.9;;;;;;;18.05;81.64355;94911.66;;;;
2019/07/26 04:17:10;;;;;;;13.1;11.9;;;;;;;18.05;81.64355;94911.66;;;;
2019/07/26 04:18:11;;;;;;;13.1;11.9;;;;;;;18.05;81.64355;94911.66;;;;
2019/07/26 04:19:13;;;;;;;13.1;11.9;;;;;;;18.05;81.64355;94911.66;;;;
2019/07/26 04:20:14;;;;;;;13.1;11.9;;;;;;;18.05;81.64355;94911.66;;;;
2019/07/26 04:21:16;;;;;;;13.1;11.9;;;;;;;18.05;81.64355;94911.66;;;;
2019/07/26 04:22:18;;;;;;;11.9;10.75;;;;;;;18.11;82.21875;94931.95;;;;
2019/07/26 04:23:19;;;;;;;11.9;10.75;;;;;;;18.11;82.21875;94931.95;;;;
2019/07/26 04:24:20;;;;;;;11.9;10.75;;;;;;;18.11;82.21875;94931.95;;;;
2019/07/26 04:25:21;;;;;;;11.9;10.75;;;;;;;18.11;82.21875;94931.95;;;;
2019/07/26 04:26:22;;;;;;;11.9;10.75;;;;;;;18.11;82.21875;94931.95;;;;
2019/07/26 04:27:23;;;;;;;11.9;10.75;;;;;;;18.11;82.21875;94931.95;;;;
2019/07/26 04:28:24;;;;;;;11.9;10.75;;;;;;;18.11;82.21875;94931.95;;;;
2019/07/26 04:29:25;;;;;;;11.9;10.75;;;;;;;18.11;82.21875;94931.95;;;;
2019/07/26 04:30:26;;;;;;;11.9;10.75;;;;;;;18.11;82.21875;94931.95;;;;
2019/07/26 04:31:57;;;;;;;11.9;10.75;;;;;;;18.11;82.21875;94931.95;;;;
2019/07/26 04:32:58;;;;;;;12;10.95;;;;;;;18.3;82.38574;94945.51;;;;
2019/07/26 04:33:59;;;;;;;12;10.95;;;;;;;18.3;82.38574;94945.51;;;;
2019/07/26 04:35:00;;;;;;;12;10.95;;;;;;;18.3;82.38574;94945.51;;;;
2019/07/26 04:36:01;;;;;;;12;10.95;;;;;;;18.3;82.38574;94945.51;;;;
2019/07/26 04:37:02;;;;;;;12;10.95;;;;;;;18.3;82.38574;94945.51;;;;
2019/07/26 04:38:03;;;;;;;12;10.95;;;;;;;18.3;82.38574;94945.51;;;;
2019/07/26 04:39:05;;;;;;;12;10.95;;;;;;;18.3;82.38574;94945.51;;;;
2019/07/26 04:40:06;;;;;;;12;10.95;;;;;;;18.3;82.38574;94945.51;;;;
2019/07/26 04:41:08;;;;;;;12;10.95;;;;;;;18.3;82.38574;94945.51;;;;
2019/07/26 04:42:09;;;;;;;12;10.95;;;;;;;18.3;82.38574;94945.51;;;;
2019/07/26 04:43:10;;;;;;;12;10.95;;;;;;;18.3;82.38574;94945.51;;;;
2019/07/26 04:44:11;;;;;;;12;10.95;;;;;;;18.3;82.38574;94945.51;;;;
2019/07/26 04:45:12;;;;;;;12;10.95;;;;;;;18.3;82.38574;94945.51;;;;
2019/07/26 04:46:14;;;;;;;12;10.95;;;;;;;18.3;82.38574;94945.51;;;;
2019/07/26 04:47:15;;;;;;;12;10.95;;;;;;;18.3;82.38574;94945.51;;;;
2019/07/26 04:48:16;;;;;;;12;10.95;;;;;;;18.3;82.38574;94945.51;;;;
2019/07/26 04:49:17;;;;;;;12;10.95;;;;;;;18.3;82.38574;94945.51;;;;
2019/07/26 04:50:18;;;;;;;12;10.95;;;;;;;18.3;82.38574;94945.51;;;;
2019/07/26 04:51:20;;;;;;;12;10.95;;;;;;;18.3;82.38574;94945.51;;;;
2019/07/26 04:52:21;;;;;;;12;10.95;;;;;;;18.3;82.38574;94945.51;;;;
2019/07/26 04:53:22;;;;;;;12;10.95;;;;;;;18.3;82.38574;94945.51;;;;
2019/07/26 04:54:23;;;;;;;12.85;11.65;;;;;;;18.78;82.28809;94945.89;;;;
2019/07/26 04:55:24;;;;;;;12.85;11.65;;;;;;;18.78;82.28809;94945.89;;;;
2019/07/26 04:56:25;;;;;;;12.85;11.65;;;;;;;18.78;82.28809;94945.89;;;;
2019/07/26 04:57:26;;;;;;;12.85;11.65;;;;;;;18.78;82.28809;94945.89;;;;
2019/07/26 04:58:27;;;;;;;12.85;11.65;;;;;;;18.78;82.28809;94945.89;;;;
2019/07/26 04:59:28;;;;;;;12.85;11.65;;;;;;;18.78;82.28809;94945.89;;;;
2019/07/26 05:00:29;;;;;;;12.85;11.65;;;;;;;18.78;82.28809;94945.89;;;;
2019/07/26 05:01:46;;;;;;;12.85;11.65;;;;;;;18.78;82.28809;94945.89;;;;
2019/07/26 05:02:47;;;;;;;12.85;11.65;;;;;;;18.78;82.28809;94945.89;;;;
2019/07/26 05:03:48;;;;;;;12.85;11.65;;;;;;;18.78;82.28809;94945.89;;;;
2019/07/26 05:04:50;;;;;;;12.85;11.65;;;;;;;18.78;82.28809;94945.89;;;;
2019/07/26 05:05:51;;;;;;;13.5;12.35;;;;;;;18.99;82.49121;94934.35;;;;
2019/07/26 05:06:52;;;;;;;13.5;12.35;;;;;;;18.99;82.49121;94934.35;;;;
2019/07/26 05:07:53;;;;;;;13.5;12.35;;;;;;;18.99;82.49121;94934.35;;;;
2019/07/26 05:08:55;;;;;;;13.5;12.35;;;;;;;18.99;82.49121;94934.35;;;;
2019/07/26 05:09:56;;;;;;;13.5;12.35;;;;;;;18.99;82.49121;94934.35;;;;
2019/07/26 05:10:57;;;;;;;13.5;12.35;;;;;;;18.99;82.49121;94934.35;;;;
2019/07/26 05:11:58;;;;;;;13.5;12.35;;;;;;;18.99;82.49121;94934.35;;;;
2019/07/26 05:12:59;;;;;;;13.5;12.35;;;;;;;18.99;82.49121;94934.35;;;;
2019/07/26 05:14:00;;;;;;;13.5;12.35;;;;;;;18.99;82.49121;94934.35;;;;
2019/07/26 05:15:01;;;;;;;13.5;12.35;;;;;;;18.99;82.49121;94934.35;;;;
2019/07/26 05:16:03;;;;;;;14.15;12.95;;;;;;;19.39;82.49902;94944.67;;;;
2019/07/26 05:17:04;;;;;;;14.15;12.95;;;;;;;19.39;82.49902;94944.67;;;;
2019/07/26 05:18:05;;;;;;;14.15;12.95;;;;;;;19.39;82.49902;94944.67;;;;
2019/07/26 05:19:06;;;;;;;14.15;12.95;;;;;;;19.39;82.49902;94944.67;;;;
2019/07/26 05:20:07;;;;;;;14.15;12.95;;;;;;;19.39;82.49902;94944.67;;;;
2019/07/26 05:21:09;;;;;;;14.15;12.95;;;;;;;19.39;82.49902;94944.67;;;;
2019/07/26 05:22:10;;;;;;;14.15;12.95;;;;;;;19.39;82.49902;94944.67;;;;
2019/07/26 05:23:14;;;;;;;14.15;12.95;;;;;;;19.39;82.49902;94944.67;;;;
2019/07/26 05:24:15;;;;;;;14.15;12.95;;;;;;;19.39;82.49902;94944.67;;;;
2019/07/26 05:25:16;;;;;;;14.15;12.95;;;;;;;19.39;82.49902;94944.67;;;;
2019/07/26 05:26:17;;;;;;;14.15;12.95;;;;;;;19.39;82.49902;94944.67;;;;
2019/07/26 05:27:19;;;;;;;14.15;12.95;;;;;;;19.39;82.49902;94944.67;;;;
2019/07/26 05:28:20;;;;;;;14.15;12.95;;;;;;;19.39;82.49902;94944.67;;;;
2019/07/26 05:29:21;;;;;;;14.15;12.95;;;;;;;19.39;82.49902;94944.67;;;;
2019/07/26 05:30:22;;;;;;;14.15;12.95;;;;;;;19.39;82.49902;94944.67;;;;
2019/07/26 05:31:24;;;;;;;14.15;12.95;;;;;;;19.39;82.49902;94944.67;;;;
2019/07/26 05:32:25;;;;;;;14.15;12.95;;;;;;;19.39;82.49902;94944.67;;;;
2019/07/26 05:33:26;;;;;;;14.15;12.95;;;;;;;19.39;82.49902;94944.67;;;;
2019/07/26 05:34:27;;;;;;;14.15;12.95;;;;;;;19.39;82.49902;94944.67;;;;
2019/07/26 05:35:28;;;;;;;14.15;12.95;;;;;;;19.39;82.49902;94944.67;;;;
2019/07/26 05:36:29;;;;;;;14.15;12.95;;;;;;;19.39;82.49902;94944.67;;;;
2019/07/26 05:37:30;;;;;;;13.85;12.65;;;;;;;20.54;81.43555;94930.36;;;;
2019/07/26 05:38:31;;;;;;;13.85;12.65;;;;;;;20.54;81.43555;94930.36;;;;
2019/07/26 05:39:32;;;;;;;13.85;12.65;;;;;;;20.54;81.43555;94930.36;;;;
2019/07/26 05:40:33;;;;;;;13.85;12.65;;;;;;;20.54;81.43555;94930.36;;;;
2019/07/26 05:41:35;;;;;;;13.85;12.65;;;;;;;20.54;81.43555;94930.36;;;;
2019/07/26 05:42:36;;;;;;;13.85;12.65;;;;;;;20.54;81.43555;94930.36;;;;